createdAt,value
2016-09-16T00:00:38.403Z,73.72
2016-09-16T00:01:39.062Z,73.52
2016-09-16T00:02:39.728Z,73.52
2016-09-16T00:03:40.382Z,74.19
2016-09-16T00:04:41.028Z,74.19
2016-09-16T00:05:41.727Z,73.77
2016-09-16T00:06:42.405Z,74.48
2016-09-16T00:07:43.064Z,73.91
2016-09-16T00:08:43.711Z,74.16
2016-09-16T00:09:44.364Z,74.01
2016-09-16T00:10:45.005Z,73.87
2016-09-16T00:11:45.650Z,74.68
2016-09-16T00:12:46.314Z,74.35
2016-09-16T00:13:46.995Z,73.72
2016-09-16T00:14:47.625Z,74.54
2016-09-16T00:15:48.278Z,73.81
2016-09-16T00:16:48.925Z,74.06
2016-09-16T00:17:49.554Z,74.44
2016-09-16T00:18:50.194Z,74.39
2016-09-16T00:19:50.832Z,74.44
2016-09-16T00:20:51.468Z,74.54
2016-09-16T00:21:52.129Z,74.68
2016-09-16T00:22:52.776Z,74.54
2016-09-16T00:23:53.422Z,74.48
2016-09-16T00:24:54.075Z,75.21
2016-09-16T00:25:54.832Z,74.54
2016-09-16T00:26:55.483Z,75.21
2016-09-16T00:27:56.118Z,75.12
2016-09-16T00:28:56.766Z,74.93
2016-09-16T00:29:57.430Z,75.5
2016-09-16T00:30:58.070Z,75.25
2016-09-16T00:31:58.729Z,75.12
2016-09-16T00:32:59.359Z,74.83
2016-09-16T00:33:59.995Z,74.93
2016-09-16T00:35:00.619Z,75.4
2016-09-16T00:36:01.261Z,75.6
2016-09-16T00:37:01.930Z,74.93
2016-09-16T00:38:02.609Z,75.4
2016-09-16T00:39:03.264Z,75.31
2016-09-16T00:40:03.903Z,75.12
2016-09-16T00:41:04.547Z,76.27
2016-09-16T00:42:05.198Z,76.27
2016-09-16T00:43:05.817Z,75.89
2016-09-16T00:44:06.444Z,75.5
2016-09-16T00:45:07.092Z,75.98
2016-09-16T00:46:07.732Z,76.17
2016-09-16T00:47:08.376Z,76.37
2016-09-16T00:48:09.021Z,75.5
2016-09-16T00:49:09.661Z,75.98
2016-09-16T00:50:10.300Z,76.37
2016-09-16T00:51:10.942Z,76.17
2016-09-16T00:52:11.580Z,76.65
2016-09-16T00:53:12.219Z,76.65
2016-09-16T00:54:12.849Z,76.17
2016-09-16T00:55:13.499Z,76.07
2016-09-16T00:56:14.134Z,76.65
2016-09-16T00:57:14.794Z,76.27
2016-09-16T00:58:15.447Z,76.17
2016-09-16T00:59:16.069Z,76.17
2016-09-16T01:00:16.709Z,76.17
2016-09-16T01:01:17.345Z,76.56
2016-09-16T01:02:17.979Z,77.33
2016-09-16T01:03:18.615Z,76.52
2016-09-16T01:04:19.254Z,77.13
2016-09-16T01:05:19.891Z,76.84
2016-09-16T01:06:20.541Z,76.71
2016-09-16T01:07:21.202Z,76.71
2016-09-16T01:08:21.845Z,77
2016-09-16T01:09:22.498Z,76.71
2016-09-16T01:10:23.182Z,76.81
2016-09-16T01:11:23.850Z,76.84
2016-09-16T01:12:24.486Z,76.75
2016-09-16T01:13:25.134Z,76.75
2016-09-16T01:14:25.774Z,76.9
2016-09-16T01:15:26.417Z,77.19
2016-09-16T01:16:27.065Z,77.48
2016-09-16T01:17:27.702Z,77.09
2016-09-16T01:18:28.335Z,77.29
2016-09-16T01:19:29.010Z,77.48
2016-09-16T01:20:29.654Z,77.67
2016-09-16T01:21:30.292Z,77.38
2016-09-16T01:22:30.956Z,77.67
2016-09-16T01:23:31.605Z,77.29
2016-09-16T01:24:32.243Z,77.58
2016-09-16T01:25:32.880Z,77.48
2016-09-16T01:26:33.541Z,77.29
2016-09-16T01:27:34.213Z,77.48
2016-09-16T01:28:34.877Z,77.67
2016-09-16T01:29:35.507Z,77.76
2016-09-16T01:30:36.149Z,77.76
2016-09-16T01:31:36.786Z,77.67
2016-09-16T01:32:37.440Z,77.67
2016-09-16T01:33:38.095Z,77.48
2016-09-16T01:34:38.734Z,77.86
2016-09-16T01:35:39.380Z,77.76
2016-09-16T01:36:40.023Z,77.67
2016-09-16T01:37:40.659Z,77.95
2016-09-16T01:38:41.330Z,77.67
2016-09-16T01:39:41.978Z,77.86
2016-09-16T01:40:42.621Z,77.86
2016-09-16T01:41:43.256Z,77.58
2016-09-16T01:42:43.880Z,78.05
2016-09-16T01:43:44.537Z,77.67
2016-09-16T01:44:45.190Z,77.95
2016-09-16T01:45:45.825Z,77.48
2016-09-16T01:46:46.464Z,78.05
2016-09-16T01:47:47.119Z,77.86
2016-09-16T01:48:47.774Z,78.05
2016-09-16T01:49:48.430Z,77.95
2016-09-16T01:50:49.072Z,78.15
2016-09-16T01:51:49.708Z,78.25
2016-09-16T01:52:50.354Z,78.05
2016-09-16T01:53:50.989Z,77.86
2016-09-16T01:54:51.638Z,78.05
2016-09-16T01:55:52.295Z,78.05
2016-09-16T01:56:52.924Z,78.05
2016-09-16T01:57:53.586Z,78.25
2016-09-16T01:58:54.230Z,77.95
2016-09-16T01:59:54.882Z,77.76
2016-09-16T02:00:55.527Z,78.25
2016-09-16T02:01:56.174Z,78.15
2016-09-16T02:02:56.811Z,77.95
2016-09-16T02:03:57.460Z,77.95
2016-09-16T02:04:58.099Z,78.15
2016-09-16T02:05:58.772Z,77.95
2016-09-16T02:06:59.396Z,77.86
2016-09-16T02:08:00.017Z,77.95
2016-09-16T02:09:00.666Z,78.05
2016-09-16T02:10:01.319Z,77.92
2016-09-16T02:11:01.967Z,78.4
2016-09-16T02:12:02.628Z,78.63
2016-09-16T02:13:03.283Z,78.34
2016-09-16T02:14:03.932Z,78.53
2016-09-16T02:15:04.577Z,78.53
2016-09-16T02:16:05.227Z,78.78
2016-09-16T02:17:05.875Z,78.69
2016-09-16T02:18:06.519Z,78.88
2016-09-16T02:19:07.177Z,78.69
2016-09-16T02:20:07.834Z,78.49
2016-09-16T02:21:08.480Z,78.78
2016-09-16T02:22:09.115Z,78.78
2016-09-16T02:23:09.771Z,78.88
2016-09-16T02:24:10.430Z,78.69
2016-09-16T02:25:11.074Z,78.69
2016-09-16T02:26:11.708Z,78.78
2016-09-16T02:27:12.364Z,78.88
2016-09-16T02:28:13.013Z,78.69
2016-09-16T02:29:13.668Z,79.16
2016-09-16T02:30:14.322Z,78.69
2016-09-16T02:31:14.955Z,78.69
2016-09-16T02:32:15.591Z,78.59
2016-09-16T02:33:16.235Z,79.16
2016-09-16T02:34:16.877Z,79.16
2016-09-16T02:35:17.520Z,78.69
2016-09-16T02:36:18.155Z,78.59
2016-09-16T02:37:18.799Z,78.78
2016-09-16T02:38:19.431Z,78.59
2016-09-16T02:39:20.075Z,78.88
2016-09-16T02:40:20.738Z,78.69
2016-09-16T02:41:21.396Z,78.49
2016-09-16T02:42:22.033Z,78.88
2016-09-16T02:43:22.675Z,78.4
2016-09-16T02:44:23.311Z,78.59
2016-09-16T02:45:23.941Z,78.97
2016-09-16T02:46:24.609Z,79.26
2016-09-16T02:47:25.259Z,79.07
2016-09-16T02:48:25.912Z,79.26
2016-09-16T02:49:26.543Z,79.45
2016-09-16T02:50:27.203Z,79.36
2016-09-16T02:51:27.871Z,79.07
2016-09-16T02:52:28.499Z,79.16
2016-09-16T02:53:29.132Z,78.97
2016-09-16T02:54:29.794Z,79.16
2016-09-16T02:55:30.430Z,79.26
2016-09-16T02:56:31.088Z,79.26
2016-09-16T02:57:31.721Z,78.97
2016-09-16T02:58:32.371Z,79.16
2016-09-16T02:59:33.047Z,78.97
2016-09-16T03:00:33.677Z,78.69
2016-09-16T03:01:34.344Z,78.97
2016-09-16T03:02:35.013Z,78.78
2016-09-16T03:03:35.657Z,78.88
2016-09-16T03:04:36.314Z,78.78
2016-09-16T03:05:36.981Z,78.69
2016-09-16T03:06:37.613Z,78.88
2016-09-16T03:07:38.267Z,78.78
2016-09-16T03:08:38.898Z,78.78
2016-09-16T03:09:39.546Z,78.59
2016-09-16T03:10:40.188Z,78.69
2016-09-16T03:11:40.814Z,79.26
2016-09-16T03:12:41.473Z,78.4
2016-09-16T03:13:42.114Z,78.3
2016-09-16T03:14:42.735Z,78.59
2016-09-16T03:15:43.371Z,78.2
2016-09-16T03:16:44.026Z,78.2
2016-09-16T03:17:44.683Z,77.82
2016-09-16T03:18:45.325Z,77.92
2016-09-16T03:19:46.002Z,78.02
2016-09-16T03:20:46.612Z,78.2
2016-09-16T03:21:47.243Z,77.92
2016-09-16T03:22:47.875Z,77.92
2016-09-16T03:23:48.541Z,77.92
2016-09-16T03:24:49.198Z,77.82
2016-09-16T03:25:49.828Z,77.92
2016-09-16T03:26:50.487Z,77.92
2016-09-16T03:27:51.163Z,77.92
2016-09-16T03:28:51.799Z,78.11
2016-09-16T03:29:52.461Z,78.2
2016-09-16T03:30:53.084Z,78.11
2016-09-16T03:31:53.747Z,78.02
2016-09-16T03:32:54.384Z,77.92
2016-09-16T03:33:55.004Z,78.11
2016-09-16T03:34:55.682Z,77.92
2016-09-16T03:35:56.344Z,78.2
2016-09-16T03:36:57.008Z,77.92
2016-09-16T03:37:57.679Z,77.92
2016-09-16T03:38:58.323Z,78.02
2016-09-16T03:39:58.972Z,77.92
2016-09-16T03:40:59.618Z,77.92
2016-09-16T03:42:00.264Z,77.82
2016-09-16T03:43:00.895Z,77.92
2016-09-16T03:44:01.535Z,77.92
2016-09-16T03:45:02.181Z,77.82
2016-09-16T03:46:02.816Z,78.59
2016-09-16T03:47:03.464Z,78.59
2016-09-16T03:48:04.105Z,78.2
2016-09-16T03:49:04.732Z,78.88
2016-09-16T03:50:05.384Z,79.41
2016-09-16T03:51:06.062Z,79.13
2016-09-16T03:52:06.696Z,78.97
2016-09-16T03:53:07.355Z,78.97
2016-09-16T03:54:07.992Z,79.16
2016-09-16T03:55:08.624Z,78.97
2016-09-16T03:56:09.276Z,78.97
2016-09-16T03:57:09.919Z,78.69
2016-09-16T03:58:10.569Z,78.88
2016-09-16T03:59:11.219Z,79.13
2016-09-16T04:00:11.874Z,79.07
2016-09-16T04:01:12.505Z,79.45
2016-09-16T04:02:13.169Z,78.97
2016-09-16T04:03:13.826Z,79.26
2016-09-16T04:04:14.458Z,79.16
2016-09-16T04:05:15.084Z,79.41
2016-09-16T04:06:15.746Z,79.22
2016-09-16T04:07:16.379Z,79.7
2016-09-16T04:08:17.040Z,79.99
2016-09-16T04:09:17.671Z,79.8
2016-09-16T04:10:18.339Z,80.27
2016-09-16T04:11:18.970Z,80.18
2016-09-16T04:12:19.603Z,80.37
2016-09-16T04:13:20.245Z,80.66
2016-09-16T04:14:20.874Z,80.94
2016-09-16T04:15:21.548Z,80.85
2016-09-16T04:16:22.174Z,80.85
2016-09-16T04:17:22.830Z,80.56
2016-09-16T04:18:23.463Z,81.33
2016-09-16T04:19:24.129Z,81.13
2016-09-16T04:20:24.803Z,80.66
2016-09-16T04:21:25.486Z,80.47
2016-09-16T04:22:26.150Z,81.33
2016-09-16T04:23:26.797Z,81
2016-09-16T04:24:27.447Z,81.2
2016-09-16T04:25:28.074Z,81.33
2016-09-16T04:26:28.703Z,81.33
2016-09-16T04:27:29.347Z,80.66
2016-09-16T04:28:29.992Z,81.38
2016-09-16T04:29:30.635Z,81.2
2016-09-16T04:30:31.278Z,81.2
2016-09-16T04:31:31.915Z,81.23
2016-09-16T04:32:32.547Z,81
2016-09-16T04:33:33.199Z,81.1
2016-09-16T04:34:33.849Z,81.29
2016-09-16T04:35:34.541Z,81.23
2016-09-16T04:36:35.190Z,80.9
2016-09-16T04:37:35.823Z,81.2
2016-09-16T04:38:36.488Z,81.2
2016-09-16T04:39:37.124Z,81.29
2016-09-16T04:40:37.748Z,81.38
2016-09-16T04:41:38.399Z,81.38
2016-09-16T04:42:39.040Z,81.1
2016-09-16T04:43:39.681Z,81.43
2016-09-16T04:44:40.316Z,81.38
2016-09-16T04:45:40.961Z,81.33
2016-09-16T04:46:41.592Z,81.1
2016-09-16T04:47:42.250Z,81.29
2016-09-16T04:48:42.902Z,81.23
2016-09-16T04:49:43.536Z,81
2016-09-16T04:50:44.177Z,81.29
2016-09-16T04:51:45.573Z,81.1
2016-09-16T04:52:46.136Z,81.43
2016-09-16T04:53:46.778Z,81.13
2016-09-16T04:54:47.445Z,80.9
2016-09-16T04:55:48.088Z,81.13
2016-09-16T04:56:48.733Z,81.2
2016-09-16T04:57:49.370Z,81.13
2016-09-16T04:58:50.006Z,81.23
2016-09-16T04:59:50.700Z,81.1
2016-09-16T05:00:51.336Z,81.23
2016-09-16T05:01:51.991Z,80.85
2016-09-16T05:02:52.636Z,80.66
2016-09-16T05:03:53.304Z,80.94
2016-09-16T05:04:53.948Z,80.56
2016-09-16T05:05:54.581Z,80.94
2016-09-16T05:06:55.239Z,80.56
2016-09-16T05:07:55.884Z,80.71
2016-09-16T05:08:56.543Z,80.62
2016-09-16T05:09:57.203Z,80.85
2016-09-16T05:10:57.876Z,80.76
2016-09-16T05:11:58.524Z,80.47
2016-09-16T05:12:59.174Z,80.47
2016-09-16T05:13:59.812Z,80.66
2016-09-16T05:15:00.459Z,80.66
2016-09-16T05:16:01.112Z,80.66
2016-09-16T05:17:01.773Z,80.47
2016-09-16T05:18:02.456Z,80.27
2016-09-16T05:19:03.129Z,80.37
2016-09-16T05:20:03.780Z,80.47
2016-09-16T05:21:04.421Z,80.37
2016-09-16T05:22:05.082Z,80.18
2016-09-16T05:23:05.712Z,80.08
2016-09-16T05:24:06.388Z,80.18
2016-09-16T05:25:07.031Z,79.7
2016-09-16T05:26:07.679Z,80.18
2016-09-16T05:27:08.321Z,80.08
2016-09-16T05:28:08.962Z,79.41
2016-09-16T05:29:09.714Z,79.7
2016-09-16T05:30:10.374Z,80.18
2016-09-16T05:31:11.006Z,79.8
2016-09-16T05:32:11.654Z,79.99
2016-09-16T05:33:12.291Z,79.6
2016-09-16T05:34:12.940Z,79.6
2016-09-16T05:35:13.582Z,80.08
2016-09-16T05:36:14.243Z,79.89
2016-09-16T05:37:14.883Z,79.51
2016-09-16T05:38:15.540Z,79.8
2016-09-16T05:39:16.182Z,79.6
2016-09-16T05:40:16.819Z,79.8
2016-09-16T05:41:17.475Z,79.7
2016-09-16T05:42:18.124Z,79.7
2016-09-16T05:43:18.759Z,79.41
2016-09-16T05:44:19.428Z,79.99
2016-09-16T05:45:20.103Z,79.7
2016-09-16T05:46:20.747Z,79.8
2016-09-16T05:47:21.375Z,79.89
2016-09-16T05:48:22.019Z,79.8
2016-09-16T05:49:22.691Z,79.41
2016-09-16T05:50:23.340Z,80.18
2016-09-16T05:51:23.993Z,79.7
2016-09-16T05:52:24.656Z,79.13
2016-09-16T05:53:25.288Z,78.93
2016-09-16T05:54:25.945Z,79.13
2016-09-16T05:55:26.584Z,79.03
2016-09-16T05:56:27.248Z,79.03
2016-09-16T05:57:27.920Z,79.13
2016-09-16T05:58:28.548Z,79.22
2016-09-16T05:59:29.305Z,79.26
2016-09-16T06:00:29.939Z,79.13
2016-09-16T06:01:30.590Z,79.26
2016-09-16T06:02:31.233Z,79.16
2016-09-16T06:03:33.560Z,78.2
2016-09-16T06:04:35.666Z,77.92
2016-09-16T06:05:36.854Z,78.11
2016-09-16T06:06:38.032Z,77.53
2016-09-16T06:07:38.700Z,77.63
2016-09-16T06:08:39.368Z,77.63
2016-09-16T06:09:40.038Z,77.73
2016-09-16T06:10:41.689Z,77.25
2016-09-16T06:11:42.357Z,77.29
2016-09-16T06:12:43.029Z,76.62
2016-09-16T06:13:43.984Z,76.62
2016-09-16T06:14:44.628Z,76.04
2016-09-16T06:15:45.261Z,75.37
2016-09-16T06:16:45.930Z,75.95
2016-09-16T06:17:46.585Z,76.14
2016-09-16T06:18:47.269Z,76.23
2016-09-16T06:19:47.932Z,76.29
2016-09-16T06:20:48.593Z,76.48
2016-09-16T06:21:49.245Z,76.62
2016-09-16T06:22:49.913Z,76.14
2016-09-16T06:23:50.587Z,76.62
2016-09-16T06:24:51.258Z,75.56
2016-09-16T06:25:51.917Z,76.23
2016-09-16T06:26:52.563Z,75.85
2016-09-16T06:27:53.213Z,75.46
2016-09-16T06:28:53.881Z,75.75
2016-09-16T06:29:54.531Z,75.27
2016-09-16T06:30:55.180Z,75.46
2016-09-16T06:31:55.836Z,74.98
2016-09-16T06:32:56.473Z,74.89
2016-09-16T06:33:57.204Z,74.79
2016-09-16T06:34:57.820Z,74.31
2016-09-16T06:35:58.483Z,74.35
2016-09-16T06:36:59.130Z,74.26
2016-09-16T06:37:59.785Z,74.06
2016-09-16T06:39:00.450Z,73.77
2016-09-16T06:40:01.099Z,73.39
2016-09-16T06:41:01.763Z,73.3
2016-09-16T06:42:02.419Z,72.75
2016-09-16T06:43:03.069Z,71.89
2016-09-16T06:44:03.721Z,71.12
2016-09-16T06:45:04.392Z,70.55
2016-09-16T06:46:05.045Z,71.03
2016-09-16T06:47:05.702Z,70.84
2016-09-16T06:48:06.361Z,70.26
2016-09-16T06:49:07.019Z,69.97
2016-09-16T06:50:07.661Z,68.85
2016-09-16T06:51:08.311Z,67.99
2016-09-16T06:52:08.968Z,67.16
2016-09-16T06:53:09.637Z,65.72
2016-09-16T06:54:10.283Z,65.53
2016-09-16T06:55:10.933Z,65.05
2016-09-16T06:56:11.579Z,65.72
2016-09-16T06:57:12.224Z,65.81
2016-09-16T06:58:12.888Z,64.95
2016-09-16T06:59:13.537Z,65.14
2016-09-16T07:00:14.187Z,65.62
2016-09-16T07:01:14.832Z,65.05
2016-09-16T07:02:15.477Z,65.05
2016-09-16T07:03:16.128Z,64.66
2016-09-16T07:04:16.764Z,64.09
2016-09-16T07:05:17.437Z,63.99
2016-09-16T07:06:18.096Z,63.83
2016-09-16T07:07:18.743Z,62.96
2016-09-16T07:08:19.410Z,62.48
2016-09-16T07:09:20.089Z,62.38
2016-09-16T07:10:20.751Z,63.06
2016-09-16T07:11:21.421Z,63.25
2016-09-16T07:12:22.071Z,63.51
2016-09-16T07:13:22.724Z,63.89
2016-09-16T07:14:23.419Z,64.76
2016-09-16T07:15:24.065Z,64.76
2016-09-16T07:16:24.724Z,65.11
2016-09-16T07:17:25.367Z,65.2
2016-09-16T07:18:26.021Z,65.01
2016-09-16T07:19:26.675Z,65.78
2016-09-16T07:20:27.321Z,65.4
2016-09-16T07:21:27.971Z,65.05
2016-09-16T07:22:28.632Z,65.05
2016-09-16T07:23:29.266Z,64.66
2016-09-16T07:24:29.917Z,64.76
2016-09-16T07:25:30.566Z,65.69
2016-09-16T07:26:31.197Z,65.2
2016-09-16T07:27:31.848Z,66.07
2016-09-16T07:28:32.507Z,65.4
2016-09-16T07:29:33.151Z,64.82
2016-09-16T07:30:33.818Z,64.63
2016-09-16T07:31:34.483Z,63.99
2016-09-16T07:32:35.123Z,63.51
2016-09-16T07:33:35.758Z,62.19
2016-09-16T07:34:36.397Z,62.13
2016-09-16T07:35:37.063Z,60.78
2016-09-16T07:36:37.717Z,60.11
2016-09-16T07:37:38.352Z,59.63
2016-09-16T07:38:39.008Z,59.37
2016-09-16T07:39:39.643Z,59.53
2016-09-16T07:40:40.324Z,60.3
2016-09-16T07:41:40.977Z,60.49
2016-09-16T07:42:41.640Z,59.72
2016-09-16T07:43:42.281Z,60.39
2016-09-16T07:44:42.942Z,60.3
2016-09-16T07:45:43.624Z,60.11
2016-09-16T07:46:44.295Z,60.78
2016-09-16T07:47:44.942Z,60.78
2016-09-16T07:48:45.587Z,60.59
2016-09-16T07:49:46.247Z,60.59
2016-09-16T07:50:46.920Z,60.49
2016-09-16T07:51:47.576Z,60.75
2016-09-16T07:52:48.216Z,61.52
2016-09-16T07:53:48.876Z,62.1
2016-09-16T07:54:49.517Z,62
2016-09-16T07:55:50.180Z,61.52
2016-09-16T07:56:50.847Z,61.84
2016-09-16T07:57:51.519Z,61.04
2016-09-16T07:58:52.154Z,61.46
2016-09-16T07:59:52.802Z,61.55
2016-09-16T08:00:53.451Z,61.26
2016-09-16T08:01:54.112Z,60.69
2016-09-16T08:02:54.755Z,60.14
2016-09-16T08:03:55.403Z,59.66
2016-09-16T08:04:56.077Z,59.17
2016-09-16T08:05:56.743Z,59.66
2016-09-16T08:06:57.427Z,58.98
2016-09-16T08:07:58.088Z,58.44
2016-09-16T08:08:58.773Z,58.22
2016-09-16T08:09:59.433Z,59.08
2016-09-16T08:11:00.088Z,58.89
2016-09-16T08:12:00.737Z,59.17
2016-09-16T08:13:01.389Z,59.2
2016-09-16T08:14:02.066Z,59.37
2016-09-16T08:15:02.725Z,58.12
2016-09-16T08:16:03.373Z,58.79
2016-09-16T08:17:04.027Z,58.98
2016-09-16T08:18:04.716Z,59.17
2016-09-16T08:19:05.374Z,58.89
2016-09-16T08:20:06.026Z,59.27
2016-09-16T08:21:06.684Z,59.01
2016-09-16T08:22:07.378Z,58.72
2016-09-16T08:23:08.020Z,58.05
2016-09-16T08:24:08.679Z,57.95
2016-09-16T08:25:09.348Z,57.86
2016-09-16T08:26:09.998Z,57.31
2016-09-16T08:27:10.672Z,57.28
2016-09-16T08:28:11.330Z,57.12
2016-09-16T08:29:12.161Z,56.73
2016-09-16T08:30:12.781Z,57.21
2016-09-16T08:31:13.455Z,57.31
2016-09-16T08:32:14.109Z,56.82
2016-09-16T08:33:14.801Z,57.47
2016-09-16T08:34:15.447Z,57.37
2016-09-16T08:35:16.114Z,57.95
2016-09-16T08:36:16.768Z,58.53
2016-09-16T08:37:17.436Z,57.83
2016-09-16T08:38:18.100Z,58.79
2016-09-16T08:39:18.779Z,59.27
2016-09-16T08:40:19.452Z,60.11
2016-09-16T08:41:20.130Z,60.39
2016-09-16T08:42:20.779Z,60.39
2016-09-16T08:43:21.440Z,60.49
2016-09-16T08:44:22.104Z,60.39
2016-09-16T08:45:22.768Z,60.62
2016-09-16T08:46:23.414Z,60.33
2016-09-16T08:47:24.068Z,59.56
2016-09-16T08:48:24.743Z,60.24
2016-09-16T08:49:25.424Z,60.24
2016-09-16T08:50:26.104Z,59.47
2016-09-16T08:51:26.758Z,59.08
2016-09-16T08:52:27.403Z,59.17
2016-09-16T08:53:28.063Z,58.82
2016-09-16T08:54:28.736Z,58.53
2016-09-16T08:55:29.395Z,57.95
2016-09-16T08:56:30.070Z,57.67
2016-09-16T08:57:30.766Z,57.37
2016-09-16T08:58:31.475Z,57.47
2016-09-16T08:59:32.143Z,57.31
2016-09-16T09:00:32.818Z,57.12
2016-09-16T09:01:33.491Z,57.31
2016-09-16T09:02:34.153Z,56.44
2016-09-16T09:03:34.830Z,56.82
2016-09-16T09:04:35.513Z,56.54
2016-09-16T09:05:36.172Z,56.63
2016-09-16T09:06:36.862Z,57.4
2016-09-16T09:07:37.516Z,58.08
2016-09-16T09:08:38.197Z,57.21
2016-09-16T09:09:38.955Z,57.37
2016-09-16T09:10:39.615Z,57.98
2016-09-16T09:11:42.462Z,57.4
2016-09-16T09:12:43.125Z,57.6
2016-09-16T09:13:45.556Z,57.31
2016-09-16T09:14:46.740Z,57.53
2016-09-16T09:15:47.519Z,57.31
2016-09-16T09:16:48.195Z,57.4
2016-09-16T09:17:49.046Z,57.5
2016-09-16T09:18:49.859Z,56.92
2016-09-16T09:19:50.509Z,57.4
2016-09-16T09:20:51.195Z,57.89
2016-09-16T09:21:52.056Z,57.6
2016-09-16T09:22:52.756Z,57.89
2016-09-16T09:23:53.457Z,57.6
2016-09-16T09:24:54.123Z,57.28
2016-09-16T09:25:54.783Z,58.34
2016-09-16T09:26:55.456Z,58.05
2016-09-16T09:27:56.141Z,58.37
2016-09-16T09:28:56.816Z,58.08
2016-09-16T09:29:57.486Z,58.17
2016-09-16T09:30:58.146Z,57.79
2016-09-16T09:31:58.816Z,57.6
2016-09-16T09:32:59.507Z,57.89
2016-09-16T09:34:00.234Z,57.89
2016-09-16T09:35:01.194Z,57.12
2016-09-16T09:36:01.873Z,57.5
2016-09-16T09:37:02.551Z,57.6
2016-09-16T09:38:03.219Z,58.47
2016-09-16T09:39:03.896Z,57.6
2016-09-16T09:40:04.563Z,57.31
2016-09-16T09:41:05.263Z,57.31
2016-09-16T09:42:05.905Z,57.6
2016-09-16T09:43:06.582Z,57.98
2016-09-16T09:44:07.259Z,57.89
2016-09-16T09:45:07.930Z,57.62
2016-09-16T09:46:09.077Z,57.5
2016-09-16T09:47:10.091Z,57.6
2016-09-16T09:48:10.921Z,57.4
2016-09-16T09:49:11.850Z,57.24
2016-09-16T09:50:12.561Z,57.4
2016-09-16T09:51:13.273Z,57.5
2016-09-16T09:52:13.977Z,57.69
2016-09-16T09:53:14.688Z,57.79
2016-09-16T09:54:15.381Z,57.62
2016-09-16T09:55:16.070Z,57.72
2016-09-16T09:56:17.040Z,57.43
2016-09-16T09:57:17.844Z,57.62
2016-09-16T09:58:18.561Z,57.62
2016-09-16T09:59:19.353Z,57.43
2016-09-16T10:00:20.203Z,58.49
2016-09-16T10:01:20.930Z,58.49
2016-09-16T10:02:22.163Z,58.01
2016-09-16T10:03:22.852Z,58.59
2016-09-16T10:04:23.577Z,58.4
2016-09-16T10:05:24.257Z,58.23
2016-09-16T10:06:24.958Z,58.3
2016-09-16T10:07:25.618Z,58.59
2016-09-16T10:08:26.288Z,58.14
2016-09-16T10:09:26.958Z,58.11
2016-09-16T10:10:27.686Z,58.11
2016-09-16T10:11:28.374Z,58.97
2016-09-16T10:12:29.028Z,59.17
2016-09-16T10:13:29.684Z,59.1
2016-09-16T10:14:30.347Z,59.94
2016-09-16T10:15:31.008Z,59.48
2016-09-16T10:16:31.683Z,59.45
2016-09-16T10:17:32.353Z,59.68
2016-09-16T10:18:33.011Z,59.17
2016-09-16T10:19:33.671Z,59.45
2016-09-16T10:20:34.319Z,59.65
2016-09-16T10:21:34.966Z,59.94
2016-09-16T10:22:35.617Z,60.42
2016-09-16T10:23:36.274Z,60.61
2016-09-16T10:24:36.940Z,60.23
2016-09-16T10:25:37.608Z,60.42
2016-09-16T10:26:38.298Z,60.13
2016-09-16T10:27:38.958Z,60.52
2016-09-16T10:28:39.640Z,60.52
2016-09-16T10:29:40.298Z,60.42
2016-09-16T10:30:41.016Z,60.42
2016-09-16T10:31:41.691Z,59.84
2016-09-16T10:32:42.355Z,59.65
2016-09-16T10:33:43.043Z,59.17
2016-09-16T10:34:43.744Z,59.84
2016-09-16T10:35:44.431Z,59.75
2016-09-16T10:36:45.181Z,59.55
2016-09-16T10:37:45.854Z,60.23
2016-09-16T10:38:46.565Z,59.36
2016-09-16T10:39:47.221Z,59.55
2016-09-16T10:40:47.876Z,59.84
2016-09-16T10:41:48.549Z,59.84
2016-09-16T10:42:49.227Z,59.94
2016-09-16T10:43:49.938Z,59.75
2016-09-16T10:44:50.635Z,60.32
2016-09-16T10:45:51.317Z,60.9
2016-09-16T10:46:51.975Z,60.23
2016-09-16T10:47:52.669Z,60.23
2016-09-16T10:48:53.328Z,60.52
2016-09-16T10:49:54.001Z,60.13
2016-09-16T10:50:54.659Z,60.61
2016-09-16T10:51:55.339Z,59.75
2016-09-16T10:52:56.002Z,59.87
2016-09-16T10:53:56.680Z,59.68
2016-09-16T10:54:57.428Z,59.87
2016-09-16T10:55:58.101Z,59.48
2016-09-16T10:56:58.758Z,59.75
2016-09-16T10:57:59.488Z,59.75
2016-09-16T10:59:00.138Z,59.94
2016-09-16T11:00:00.848Z,59.68
2016-09-16T11:01:01.542Z,59.07
2016-09-16T11:02:02.260Z,59.45
2016-09-16T11:03:02.952Z,59.2
2016-09-16T11:04:03.612Z,59.68
2016-09-16T11:05:04.284Z,59.48
2016-09-16T11:06:05.043Z,59.68
2016-09-16T11:07:05.958Z,59.68
2016-09-16T11:08:06.403Z,59.87
2016-09-16T11:09:07.213Z,59.78
2016-09-16T11:10:07.863Z,60.61
2016-09-16T11:11:08.528Z,60.64
2016-09-16T11:12:10.021Z,60.93
2016-09-16T11:13:12.495Z,61.03
2016-09-16T11:14:13.351Z,61.41
2016-09-16T11:15:14.006Z,61.61
2016-09-16T11:16:15.959Z,61.71
2016-09-16T11:17:17.403Z,61.61
2016-09-16T11:18:18.659Z,61.41
2016-09-16T11:19:19.631Z,61.61
2016-09-16T11:20:20.561Z,61.51
2016-09-16T11:21:21.191Z,61.06
2016-09-16T11:22:21.957Z,60.74
2016-09-16T11:23:22.635Z,60.38
2016-09-16T11:24:23.301Z,60.96
2016-09-16T11:25:23.964Z,60.96
2016-09-16T11:26:25.725Z,60.58
2016-09-16T11:27:26.826Z,60.38
2016-09-16T11:28:27.564Z,60.64
2016-09-16T11:29:28.996Z,60.06
2016-09-16T11:30:29.682Z,60.55
2016-09-16T11:31:30.355Z,60.45
2016-09-16T11:32:31.020Z,59.87
2016-09-16T11:33:31.741Z,59.68
2016-09-16T11:34:32.425Z,59.87
2016-09-16T11:35:33.097Z,60.26
2016-09-16T11:36:33.799Z,60.83
2016-09-16T11:37:34.733Z,60.83
2016-09-16T11:38:35.380Z,61.22
2016-09-16T11:39:36.093Z,61.22
2016-09-16T11:40:36.754Z,61.9
2016-09-16T11:41:37.424Z,61.71
2016-09-16T11:42:38.094Z,61.99
2016-09-16T11:43:38.758Z,62.18
2016-09-16T11:44:39.429Z,62.18
2016-09-16T11:45:40.090Z,62.18
2016-09-16T11:46:40.772Z,62.28
2016-09-16T11:47:41.425Z,63.15
2016-09-16T11:48:42.125Z,63.06
2016-09-16T11:49:42.801Z,62.76
2016-09-16T11:50:43.471Z,63.15
2016-09-16T11:51:44.144Z,63.73
2016-09-16T11:52:44.945Z,63.54
2016-09-16T11:53:45.598Z,64.11
2016-09-16T11:54:46.262Z,64.89
2016-09-16T11:55:46.936Z,64.86
2016-09-16T11:56:47.609Z,64.5
2016-09-16T11:57:48.286Z,65.33
2016-09-16T11:58:48.952Z,65.43
2016-09-16T11:59:49.625Z,65.43
2016-09-16T12:00:50.328Z,65.81
2016-09-16T12:01:50.970Z,65.33
2016-09-16T12:02:51.651Z,66.2
2016-09-16T12:03:52.320Z,66.49
2016-09-16T12:04:52.981Z,66.3
2016-09-16T12:05:53.668Z,66.78
2016-09-16T12:06:54.324Z,66.78
2016-09-16T12:07:55.000Z,66.88
2016-09-16T12:08:55.688Z,66.78
2016-09-16T12:09:56.356Z,67.16
2016-09-16T12:10:57.020Z,66.78
2016-09-16T12:11:57.703Z,67.3
2016-09-16T12:12:58.363Z,67.4
2016-09-16T12:13:59.038Z,67.46
2016-09-16T12:14:59.701Z,67.58
2016-09-16T12:16:00.383Z,67.55
2016-09-16T12:17:01.042Z,67.97
2016-09-16T12:18:01.758Z,68.07
2016-09-16T12:19:02.443Z,67.49
2016-09-16T12:20:03.127Z,67.55
2016-09-16T12:21:03.795Z,67.46
2016-09-16T12:22:04.453Z,67.49
2016-09-16T12:23:05.134Z,67.74
2016-09-16T12:24:05.802Z,67.94
2016-09-16T12:25:06.489Z,67.65
2016-09-16T12:26:07.143Z,67.94
2016-09-16T12:27:07.813Z,68.32
2016-09-16T12:28:08.456Z,68.35
2016-09-16T12:29:09.110Z,68.61
2016-09-16T12:30:09.777Z,68.74
2016-09-16T12:31:10.471Z,69.29
2016-09-16T12:32:11.125Z,69.77
2016-09-16T12:33:11.779Z,69.57
2016-09-16T12:34:12.436Z,69.96
2016-09-16T12:35:13.092Z,69.87
2016-09-16T12:36:13.763Z,70.15
2016-09-16T12:37:14.444Z,70.35
2016-09-16T12:38:15.078Z,70.06
2016-09-16T12:39:15.732Z,70.83
2016-09-16T12:40:16.394Z,70.64
2016-09-16T12:41:17.108Z,70.64
2016-09-16T12:42:17.762Z,71.06
2016-09-16T12:43:18.460Z,70.57
2016-09-16T12:44:19.187Z,71.12
2016-09-16T12:45:19.861Z,71.5
2016-09-16T12:46:20.537Z,72.56
2016-09-16T12:47:21.196Z,74.01
2016-09-16T12:48:21.836Z,74.68
2016-09-16T12:49:22.502Z,74.97
2016-09-16T12:50:23.220Z,75.74
2016-09-16T12:51:23.902Z,76.32
2016-09-16T12:52:24.544Z,76.61
2016-09-16T12:53:25.197Z,77.09
2016-09-16T12:54:25.873Z,77.67
2016-09-16T12:55:26.548Z,77.09
2016-09-16T12:56:27.216Z,77.19
2016-09-16T12:57:27.866Z,77.58
2016-09-16T12:58:28.508Z,77.48
2016-09-16T12:59:29.177Z,77.38
2016-09-16T13:00:29.847Z,77.28
2016-09-16T13:01:30.501Z,77.19
2016-09-16T13:02:31.251Z,77.96
2016-09-16T13:03:31.913Z,78.06
2016-09-16T13:04:32.576Z,77.58